Platte, Nebraska
Current Conditions -  °F | °C
As of 2:53 PM on Tuesday 25 Nov 2014 (Local Time) from KHSI Reporting Station
Scattered Clouds Scattered Clouds  
Wind Chill: 39°   Ceiling: Unl
Heat Index: 45°   Visibility: 10mi
Dew Point: 21°   Wind: 14mph
Humidity: 39%   Direction: 210°SSW
Pressure: 29.89"   Gusts: 22mph
Location:  40.6115°N, 98.6672°W
Report Text: KHSI 252053Z AUTO 21012G19KT 10SM SCT100 07/M06 A2989 RMK AO2 SLP136 T00721061 58041
Loading
Personal Weather Stations






























Interactive Weather Map New forecast layout! Learn more

10-Day Weather Forecast

Advertisements
Track Severe Weather on mobile